createdAt,value
2019-05-13T00:00:14.087Z,98232.10
2019-05-13T00:02:43.851Z,98240.83
2019-05-13T00:05:14.417Z,98253.56
2019-05-13T00:07:43.812Z,98251.19
2019-05-13T00:10:14.614Z,98259.06
2019-05-13T00:12:44.637Z,98255.64
2019-05-13T00:15:13.943Z,98249.58
2019-05-13T00:17:44.331Z,98264.38
2019-05-13T00:20:14.163Z,98248.66
2019-05-13T00:22:44.392Z,98253.31
2019-05-13T00:25:14.287Z,98256.36
2019-05-13T00:27:44.341Z,98257.53
2019-05-13T00:30:14.229Z,98274.91
2019-05-13T00:32:44.519Z,98263.13
2019-05-13T00:35:14.220Z,98268.75
2019-05-13T00:37:44.264Z,98272.91
2019-05-13T00:40:14.310Z,98276.09
2019-05-13T00:42:44.185Z,98279.28
2019-05-13T00:45:14.498Z,98279.28
2019-05-13T00:47:44.303Z,98280.53
2019-05-13T00:50:14.228Z,98272.41
2019-05-13T00:52:44.582Z,98283.19
2019-05-13T00:55:14.478Z,98281.17
2019-05-13T00:57:43.732Z,98263.84
2019-05-13T01:00:14.177Z,98280.44
2019-05-13T01:02:44.484Z,98295.11
2019-05-13T01:05:14.382Z,98291.19
2019-05-13T01:07:44.398Z,98281.92
2019-05-13T01:10:13.369Z,98287.13
2019-05-13T01:12:44.138Z,98281.83
2019-05-13T01:15:13.693Z,98299.14
2019-05-13T01:17:41.440Z,98299.16
2019-05-13T01:20:09.821Z,98291.02
2019-05-13T01:22:37.797Z,98288.05
2019-05-13T01:25:06.156Z,98308.20
2019-05-13T01:27:34.248Z,98302.25
2019-05-13T01:30:04.176Z,98283.05
2019-05-13T01:32:34.205Z,98298.44
2019-05-13T01:35:04.454Z,98300.20
2019-05-13T01:37:41.648Z,98294.87
2019-05-13T01:40:04.930Z,98291.27
2019-05-13T01:42:33.684Z,98288.48
2019-05-13T01:45:04.518Z,98304.92
2019-05-13T01:47:34.397Z,98285.89
2019-05-13T01:50:04.048Z,98302.94
2019-05-13T01:52:34.355Z,98293.44
2019-05-13T01:55:04.047Z,98286.56
2019-05-13T01:57:34.132Z,98272.39
2019-05-13T02:00:04.535Z,98280.73
2019-05-13T02:02:33.726Z,98292.45
2019-05-13T02:05:03.945Z,98273.77
2019-05-13T02:07:33.520Z,98270.49
2019-05-13T02:10:04.267Z,98275.19
2019-05-13T02:12:34.030Z,98264.59
2019-05-13T02:15:04.468Z,98271.43
2019-05-13T02:17:33.712Z,98267.79
2019-05-13T02:20:03.859Z,98284.05
2019-05-13T02:22:33.631Z,98259.08
2019-05-13T02:25:04.165Z,98254.47
2019-05-13T02:27:31.661Z,98262.64
2019-05-13T02:29:59.880Z,98254.11
2019-05-13T02:32:28.022Z,98258.19
2019-05-13T02:34:55.913Z,98252.05
2019-05-13T02:37:24.100Z,98233.60
2019-05-13T02:39:53.186Z,98245.16
2019-05-13T02:42:22.871Z,98253.31
2019-05-13T02:44:52.905Z,98257.70
2019-05-13T02:47:22.614Z,98246.17
2019-05-13T02:49:53.359Z,98240.33
2019-05-13T02:52:22.351Z,98233.44
2019-05-13T02:54:52.765Z,98237.61
2019-05-13T02:57:23.346Z,98222.73
2019-05-13T02:59:52.675Z,98228.36
2019-05-13T03:02:22.358Z,98217.12
2019-05-13T03:04:52.289Z,98225.26
2019-05-13T03:07:23.295Z,98236.41
2019-05-13T03:09:52.719Z,98242.11
2019-05-13T03:12:23.127Z,98222.67
2019-05-13T03:14:53.159Z,98224.20
2019-05-13T03:17:25.868Z,98224.10
2019-05-13T03:19:53.894Z,98207.01
2019-05-13T03:22:22.594Z,98206.14
2019-05-13T03:24:52.364Z,98231.27
2019-05-13T03:27:24.877Z,98218.17
2019-05-13T03:29:53.302Z,98232.33
2019-05-13T03:32:26.753Z,98243.08
2019-05-13T03:34:56.060Z,98227.47
2019-05-13T03:37:26.045Z,98252.39
2019-05-13T03:39:52.347Z,98250.71
2019-05-13T03:42:23.264Z,98267.85
2019-05-13T03:44:54.269Z,98258.27
2019-05-13T03:47:23.470Z,98261.25
2019-05-13T03:49:55.848Z,98260.42
2019-05-13T03:52:24.094Z,98266.08
2019-05-13T03:54:52.242Z,98273.05
2019-05-13T03:57:23.138Z,98283.80
2019-05-13T03:59:52.567Z,98293.07
2019-05-13T04:02:22.633Z,98285.47
2019-05-13T04:04:53.026Z,98296.55
2019-05-13T04:07:23.540Z,98302.44
2019-05-13T04:09:52.522Z,98312.78
2019-05-13T04:12:22.791Z,98298.05
2019-05-13T04:14:52.817Z,98277.96
2019-05-13T04:17:24.364Z,98288.58
2019-05-13T04:19:53.003Z,98299.73
2019-05-13T04:22:23.038Z,98316.05
2019-05-13T04:24:53.026Z,98316.21
2019-05-13T04:27:23.367Z,98318.69
2019-05-13T04:29:52.754Z,98331.36
2019-05-13T04:32:22.916Z,98321.64
2019-05-13T04:34:52.922Z,98325.14
2019-05-13T04:37:22.296Z,98326.17
2019-05-13T04:39:55.481Z,98330.84
2019-05-13T04:42:23.100Z,98336.10
2019-05-13T04:44:52.958Z,98344.55
2019-05-13T04:47:22.917Z,98332.73
2019-05-13T04:49:53.322Z,98328.36
2019-05-13T04:52:22.241Z,98328.89
2019-05-13T04:54:52.831Z,98317.27
2019-05-13T04:57:22.722Z,98331.50
2019-05-13T04:59:51.810Z,98348.41
2019-05-13T05:02:58.817Z,98323.82
2019-05-13T05:05:42.069Z,98344.64
2019-05-13T05:08:53.806Z,98341.84
2019-05-13T05:11:48.962Z,98355.26
2019-05-13T05:14:41.877Z,98350.91
2019-05-13T05:17:44.235Z,98350.05
2019-05-13T05:21:01.952Z,98342.71
2019-05-13T05:24:01.855Z,98359.63
2019-05-13T05:27:11.941Z,98364.83
2019-05-13T05:29:51.685Z,98358.74
2019-05-13T05:32:37.876Z,98362.48
2019-05-13T05:36:02.727Z,98368.44
2019-05-13T05:38:56.140Z,98373.17
2019-05-13T05:41:26.616Z,98352.74
2019-05-13T05:43:56.413Z,98355.13
2019-05-13T05:46:24.887Z,98363.24
2019-05-13T05:48:53.623Z,98358.28
2019-05-13T05:51:22.238Z,98376.68
2019-05-13T05:53:51.711Z,98391.91
2019-05-13T05:56:22.018Z,98385.69
2019-05-13T05:58:52.422Z,98370.06
2019-05-13T06:01:23.323Z,98378.05
2019-05-13T06:03:52.591Z,98392.09
2019-05-13T06:06:22.765Z,98394.41
2019-05-13T06:08:51.664Z,98385.47
2019-05-13T06:11:22.140Z,98394.88
2019-05-13T06:13:53.829Z,98390.33
2019-05-13T06:16:21.776Z,98408.09
2019-05-13T06:18:52.274Z,98405.91
2019-05-13T06:21:21.497Z,98409.41
2019-05-13T06:23:51.865Z,98414.72
2019-05-13T06:26:23.349Z,98421.34
2019-05-13T06:28:51.861Z,98419.48
2019-05-13T06:31:21.388Z,98419.95
2019-05-13T06:33:51.285Z,98429.38
2019-05-13T06:36:18.986Z,98415.20
2019-05-13T06:38:46.993Z,98435.39
2019-05-13T06:41:15.032Z,98432.08
2019-05-13T06:43:42.965Z,98436.89
2019-05-13T06:46:12.424Z,98446.64
2019-05-13T06:48:41.551Z,98441.31
2019-05-13T06:51:11.580Z,98445.59
2019-05-13T06:53:41.459Z,98455.27
2019-05-13T06:56:11.960Z,98449.97
2019-05-13T06:58:41.362Z,98450.59
2019-05-13T07:01:11.424Z,98457.92
2019-05-13T07:03:41.799Z,98460.41
2019-05-13T07:06:08.797Z,98465.38
2019-05-13T07:08:36.663Z,98448.77
2019-05-13T07:11:17.639Z,98450.65
2019-05-13T07:13:34.462Z,98424.39
2019-05-13T07:16:02.477Z,98452.91
2019-05-13T07:18:32.307Z,98449.98
2019-05-13T07:21:02.173Z,98449.80
2019-05-13T07:23:31.864Z,98446.80
2019-05-13T07:26:01.670Z,98444.70
2019-05-13T07:28:32.329Z,98446.73
2019-05-13T07:31:01.949Z,98451.03
2019-05-13T07:33:32.067Z,98444.61
2019-05-13T07:36:02.746Z,98451.59
2019-05-13T07:38:32.289Z,98458.77
2019-05-13T07:41:01.859Z,98462.26
2019-05-13T07:43:32.336Z,98472.59
2019-05-13T07:46:02.098Z,98467.20
2019-05-13T07:48:31.868Z,98470.61
2019-05-13T07:51:01.368Z,98464.52
2019-05-13T07:53:32.048Z,98484.84
2019-05-13T07:56:01.762Z,98475.26
2019-05-13T07:58:29.025Z,98480.28
2019-05-13T08:00:56.953Z,98475.08
2019-05-13T08:03:24.983Z,98466.84
2019-05-13T08:05:53.904Z,98477.33
2019-05-13T08:08:22.146Z,98468.42
2019-05-13T08:10:51.941Z,98472.42
2019-05-13T08:13:22.288Z,98440.36
2019-05-13T08:15:54.333Z,98466.98
2019-05-13T08:18:22.120Z,98476.94
2019-05-13T08:20:52.288Z,98504.69
2019-05-13T08:23:21.653Z,98475.70
2019-05-13T08:25:51.442Z,98493.73
2019-05-13T08:28:19.637Z,98484.22
2019-05-13T08:30:47.486Z,98485.94
2019-05-13T08:33:15.759Z,98496.55
2019-05-13T08:35:47.161Z,98504.01
2019-05-13T08:38:13.560Z,98504.14
2019-05-13T08:40:42.444Z,98505.03
2019-05-13T08:43:12.067Z,98498.31
2019-05-13T08:45:42.096Z,98507.13
2019-05-13T08:48:12.830Z,98506.30
2019-05-13T08:50:41.993Z,98505.47
2019-05-13T08:53:12.162Z,98517.23
2019-05-13T08:55:42.252Z,98519.35
2019-05-13T08:58:12.261Z,98514.64
2019-05-13T09:00:52.852Z,98525.16
2019-05-13T09:03:21.582Z,98512.69
2019-05-13T09:05:52.161Z,98533.11
2019-05-13T09:08:22.350Z,98518.59
2019-05-13T09:10:52.063Z,98527.29
2019-05-13T09:13:22.362Z,98520.77
2019-05-13T09:15:51.720Z,98521.97
2019-05-13T09:18:22.482Z,98509.49
2019-05-13T09:20:52.076Z,98521.77
2019-05-13T09:23:22.298Z,98533.06
2019-05-13T09:25:52.127Z,98532.66
2019-05-13T09:28:21.830Z,98530.61
2019-05-13T09:30:53.122Z,98528.41
2019-05-13T09:33:21.903Z,98543.72
2019-05-13T09:35:53.415Z,98543.63
2019-05-13T09:38:22.115Z,98545.91
2019-05-13T09:40:52.828Z,98546.89
2019-05-13T09:43:22.222Z,98549.45
2019-05-13T09:45:52.259Z,98542.98
2019-05-13T09:48:22.447Z,98549.76
2019-05-13T09:50:51.709Z,98533.52
2019-05-13T09:53:22.252Z,98532.64
2019-05-13T09:55:52.182Z,98520.77
2019-05-13T09:58:22.331Z,98533.01
2019-05-13T10:00:52.453Z,98532.91
2019-05-13T10:03:26.605Z,98535.25
2019-05-13T10:05:51.837Z,98526.37
2019-05-13T10:08:21.949Z,98521.75
2019-05-13T10:10:52.323Z,98537.81
2019-05-13T10:13:22.682Z,98524.29
2019-05-13T10:15:50.459Z,98532.88
2019-05-13T10:18:18.552Z,98532.94
2019-05-13T10:20:58.299Z,98531.66
2019-05-13T10:23:24.931Z,98536.71
2019-05-13T10:25:55.344Z,98537.58
2019-05-13T10:28:23.642Z,98542.61
2019-05-13T10:30:53.154Z,98537.91
2019-05-13T10:33:22.162Z,98531.75
2019-05-13T10:35:52.405Z,98533.95
2019-05-13T10:38:22.280Z,98543.31
2019-05-13T10:40:52.026Z,98534.95
2019-05-13T10:43:31.139Z,98541.06
2019-05-13T10:45:52.257Z,98542.95
2019-05-13T10:48:22.053Z,98545.97
2019-05-13T10:50:52.998Z,98544.80
2019-05-13T10:53:21.981Z,98540.17
2019-05-13T10:55:52.240Z,98539.84
2019-05-13T10:58:23.445Z,98529.30
2019-05-13T11:00:51.968Z,98521.91
2019-05-13T11:03:23.027Z,98528.30
2019-05-13T11:05:52.582Z,98529.19
2019-05-13T11:08:22.160Z,98524.69
2019-05-13T11:10:53.155Z,98519.67
2019-05-13T11:13:23.261Z,98520.53
2019-05-13T11:15:57.099Z,98522.70
2019-05-13T11:18:23.706Z,98518.53
2019-05-13T11:20:50.422Z,98520.53
2019-05-13T11:23:18.347Z,98521.37
2019-05-13T11:25:46.344Z,98520.59
2019-05-13T11:28:14.307Z,98520.79
2019-05-13T11:30:42.478Z,98520.25
2019-05-13T11:33:10.385Z,98518.00
2019-05-13T11:35:38.533Z,98506.22
2019-05-13T11:38:06.394Z,98492.78
2019-05-13T11:40:34.468Z,98510.34
2019-05-13T11:43:02.335Z,98515.83
2019-05-13T11:45:31.597Z,98511.86
2019-05-13T11:48:02.239Z,98510.14
2019-05-13T11:50:30.119Z,98518.72
2019-05-13T11:52:58.204Z,98526.14
2019-05-13T11:55:26.254Z,98518.17
2019-05-13T11:57:54.297Z,98517.02
2019-05-13T12:00:53.287Z,98514.39
2019-05-13T12:03:23.387Z,98515.19
2019-05-13T12:05:53.959Z,98523.19
2019-05-13T12:08:22.726Z,98511.55
2019-05-13T12:10:52.012Z,98518.00
2019-05-13T12:13:22.677Z,98500.16
2019-05-13T12:15:53.276Z,98521.41
2019-05-13T12:18:23.342Z,98474.80
2019-05-13T12:20:53.625Z,98500.51
2019-05-13T12:23:20.043Z,98510.44
2019-05-13T12:25:47.725Z,98508.89
2019-05-13T12:28:15.626Z,98501.41
2019-05-13T12:30:43.710Z,98497.70
2019-05-13T12:33:13.523Z,98502.84
2019-05-13T12:35:41.607Z,98497.30
2019-05-13T12:38:12.968Z,98494.85
2019-05-13T12:40:42.623Z,98492.73
2019-05-13T12:43:12.633Z,98489.88
2019-05-13T12:45:42.862Z,98497.72
2019-05-13T12:48:09.427Z,98509.35
2019-05-13T12:50:37.587Z,98501.23
2019-05-13T12:53:05.820Z,98490.11
2019-05-13T12:55:33.738Z,98485.19
2019-05-13T12:58:02.666Z,98492.86
2019-05-13T13:00:32.932Z,98480.69
2019-05-13T13:03:02.135Z,98486.38
2019-05-13T13:05:36.218Z,98484.02
2019-05-13T13:08:18.210Z,98482.97
2019-05-13T13:10:34.551Z,98473.57
2019-05-13T13:13:02.166Z,98473.76
2019-05-13T13:15:38.341Z,98476.91
2019-05-13T13:18:02.430Z,98473.97
2019-05-13T13:20:32.660Z,98477.45
2019-05-13T13:23:03.350Z,98479.52
2019-05-13T13:25:33.594Z,98481.08
2019-05-13T13:28:10.534Z,98478.61
2019-05-13T13:30:34.582Z,98477.89
2019-05-13T13:33:02.797Z,98480.87
2019-05-13T13:35:33.733Z,98478.68
2019-05-13T13:38:04.114Z,98481.08
2019-05-13T13:40:34.642Z,98481.16
2019-05-13T13:43:05.218Z,98476.95
2019-05-13T13:45:37.424Z,98485.14
2019-05-13T13:48:03.938Z,98484.28
2019-05-13T13:50:33.575Z,98482.45
2019-05-13T13:53:00.806Z,98481.07
2019-05-13T13:55:31.429Z,98479.76
2019-05-13T13:57:58.988Z,98477.89
2019-05-13T14:00:38.110Z,98492.77
2019-05-13T14:02:56.919Z,98487.22
2019-05-13T14:05:25.152Z,98481.39
2019-05-13T14:07:53.252Z,98478.57
2019-05-13T14:10:22.100Z,98475.34
2019-05-13T14:12:52.289Z,98479.14
2019-05-13T14:15:21.569Z,98470.05
2019-05-13T14:17:51.653Z,98467.08
2019-05-13T14:20:21.937Z,98466.41
2019-05-13T14:22:56.599Z,98472.12
2019-05-13T14:25:22.228Z,98468.01
2019-05-13T14:27:49.540Z,98468.98
2019-05-13T14:30:18.137Z,98462.83
2019-05-13T14:32:46.110Z,98467.02
2019-05-13T14:35:14.159Z,98466.70
2019-05-13T14:37:42.045Z,98473.83
2019-05-13T14:40:12.178Z,98477.14
2019-05-13T14:42:42.447Z,98477.98
2019-05-13T14:45:12.130Z,98472.89
2019-05-13T14:47:39.956Z,98475.19
2019-05-13T14:50:08.286Z,98475.61
2019-05-13T14:52:36.274Z,98475.52
2019-05-13T14:55:04.653Z,98467.34
2019-05-13T14:57:32.841Z,98478.48
2019-05-13T15:00:02.422Z,98446.57
2019-05-13T15:02:35.623Z,98487.63
2019-05-13T15:05:02.742Z,98482.94
2019-05-13T15:07:32.235Z,98474.05
2019-05-13T15:10:02.359Z,98478.34
2019-05-13T15:12:32.313Z,98486.53
2019-05-13T15:15:01.452Z,98498.37
2019-05-13T15:17:32.483Z,98494.47
2019-05-13T15:20:01.886Z,98501.19
2019-05-13T15:22:31.887Z,98504.30
2019-05-13T15:25:02.546Z,98509.24
2019-05-13T15:27:31.797Z,98496.80
2019-05-13T15:30:14.390Z,98500.76
2019-05-13T15:32:32.556Z,98505.53
2019-05-13T15:35:02.158Z,98500.89
2019-05-13T15:37:32.167Z,98488.73
2019-05-13T15:40:02.323Z,98492.95
2019-05-13T15:42:31.951Z,98484.80
2019-05-13T15:45:01.866Z,98495.72
2019-05-13T15:47:31.229Z,98499.62
2019-05-13T15:50:02.390Z,98501.66
2019-05-13T15:52:31.655Z,98502.22
2019-05-13T15:55:01.447Z,98504.78
2019-05-13T15:57:31.436Z,98514.05
2019-05-13T16:00:01.975Z,98511.17
2019-05-13T16:02:31.337Z,98510.80
2019-05-13T16:05:02.239Z,98514.14
2019-05-13T16:07:29.784Z,98500.66
2019-05-13T16:09:57.851Z,98504.17
2019-05-13T16:12:26.124Z,98502.45
2019-05-13T16:14:54.513Z,98497.75
2019-05-13T16:17:37.536Z,98508.37
2019-05-13T16:19:53.465Z,98502.30
2019-05-13T16:22:23.077Z,98509.52
2019-05-13T16:24:52.197Z,98495.30
2019-05-13T16:27:21.741Z,98493.14
2019-05-13T16:29:51.565Z,98506.73
2019-05-13T16:32:19.414Z,98503.52
2019-05-13T16:34:47.512Z,98504.34
2019-05-13T16:37:15.450Z,98504.48
2019-05-13T16:39:43.778Z,98517.14
2019-05-13T16:42:12.030Z,98518.64
2019-05-13T16:44:42.994Z,98520.88
2019-05-13T16:47:12.340Z,98525.84
2019-05-13T16:49:41.099Z,98517.30
2019-05-13T16:52:11.484Z,98524.91
2019-05-13T16:54:42.200Z,98524.33
2019-05-13T16:57:09.443Z,98530.77
2019-05-13T16:59:37.432Z,98523.06
2019-05-13T17:02:05.885Z,98522.77
2019-05-13T17:04:33.887Z,98532.91
2019-05-13T17:07:02.044Z,98530.48
2019-05-13T17:09:32.339Z,98534.06
2019-05-13T17:12:01.457Z,98531.89
2019-05-13T17:14:32.053Z,98532.28
2019-05-13T17:17:01.220Z,98534.41
2019-05-13T17:19:31.602Z,98537.97
2019-05-13T17:22:00.427Z,98543.76
2019-05-13T17:24:31.871Z,98552.75
2019-05-13T17:27:01.686Z,98545.73
2019-05-13T17:29:31.551Z,98544.93
2019-05-13T17:32:00.062Z,98546.86
2019-05-13T17:34:31.629Z,98551.06
2019-05-13T17:37:02.339Z,98527.18
2019-05-13T17:39:31.942Z,98555.41
2019-05-13T17:42:01.483Z,98559.50
2019-05-13T17:44:31.868Z,98563.88
2019-05-13T17:47:01.686Z,98527.02
2019-05-13T17:49:31.852Z,98560.30
2019-05-13T17:52:02.313Z,98559.28
2019-05-13T17:54:31.861Z,98565.19
2019-05-13T17:57:01.905Z,98561.60
2019-05-13T17:59:31.429Z,98564.41
2019-05-13T18:02:02.321Z,98580.05
2019-05-13T18:04:31.437Z,98581.91
2019-05-13T18:07:01.599Z,98585.41
2019-05-13T18:09:31.966Z,98584.48
2019-05-13T18:12:02.166Z,98588.56
2019-05-13T18:14:29.889Z,98587.70
2019-05-13T18:16:58.185Z,98583.42
2019-05-13T18:19:26.252Z,98583.84
2019-05-13T18:21:54.347Z,98582.05
2019-05-13T18:24:22.671Z,98582.28
2019-05-13T18:26:52.101Z,98580.98
2019-05-13T18:29:22.550Z,98589.95
2019-05-13T18:31:52.414Z,98597.09
2019-05-13T18:34:21.700Z,98585.98
2019-05-13T18:36:51.598Z,98588.63
2019-05-13T18:39:21.588Z,98596.94
2019-05-13T18:41:49.930Z,98592.90
2019-05-13T18:44:17.976Z,98588.74
2019-05-13T18:46:46.080Z,98595.91
2019-05-13T18:49:14.307Z,98589.09
2019-05-13T18:51:42.487Z,98594.30
2019-05-13T18:54:11.913Z,98598.32
2019-05-13T18:56:41.593Z,98603.04
2019-05-13T18:59:12.341Z,98582.70
2019-05-13T19:01:39.963Z,98597.67
2019-05-13T19:04:07.976Z,98602.11
2019-05-13T19:06:35.843Z,98600.97
2019-05-13T19:09:05.028Z,98615.73
2019-05-13T19:11:33.268Z,98614.22
2019-05-13T19:14:01.254Z,98616.16
2019-05-13T19:16:29.190Z,98622.72
2019-05-13T19:18:56.987Z,98619.34
2019-05-13T19:21:25.121Z,98620.20
2019-05-13T19:23:53.236Z,98600.33
2019-05-13T19:26:21.880Z,98602.42
2019-05-13T19:28:51.613Z,98599.28
2019-05-13T19:31:22.096Z,98600.05
2019-05-13T19:33:52.049Z,98599.00
2019-05-13T19:36:21.089Z,98601.06
2019-05-13T19:38:51.189Z,98599.67
2019-05-13T19:41:19.152Z,98614.02
2019-05-13T19:43:47.402Z,98618.98
2019-05-13T19:46:15.785Z,98607.88
2019-05-13T19:48:43.704Z,98615.95
2019-05-13T19:51:12.261Z,98614.09
2019-05-13T19:53:41.506Z,98607.81
2019-05-13T19:56:11.779Z,98609.88
2019-05-13T19:58:39.554Z,98611.20
2019-05-13T20:01:07.519Z,98606.48
2019-05-13T20:03:35.366Z,98604.12
2019-05-13T20:06:03.356Z,98596.94
2019-05-13T20:08:32.074Z,98603.74
2019-05-13T20:11:02.158Z,98602.56
2019-05-13T20:13:30.546Z,98602.21
2019-05-13T20:16:01.448Z,98605.53
2019-05-13T20:18:32.025Z,98599.00
2019-05-13T20:21:01.231Z,98591.11
2019-05-13T20:23:31.842Z,98565.11
2019-05-13T20:25:59.592Z,98585.58
2019-05-13T20:28:27.671Z,98586.03
2019-05-13T20:30:55.634Z,98585.88
2019-05-13T20:33:23.760Z,98590.00
2019-05-13T20:35:52.207Z,98590.50
2019-05-13T20:38:22.107Z,98592.78
2019-05-13T20:40:51.910Z,98591.70
2019-05-13T20:43:22.320Z,98590.53
2019-05-13T20:45:51.797Z,98569.47
2019-05-13T20:48:21.236Z,98595.19
2019-05-13T20:50:51.788Z,98595.19
2019-05-13T20:53:21.147Z,98594.39
2019-05-13T20:55:49.481Z,98590.81
2019-05-13T20:58:17.569Z,98587.30
2019-05-13T21:00:45.780Z,98581.32
2019-05-13T21:03:13.816Z,98579.94
2019-05-13T21:05:41.851Z,98578.09
2019-05-13T21:08:09.952Z,98584.19
2019-05-13T21:10:37.982Z,98581.79
2019-05-13T21:13:05.999Z,98585.75
2019-05-13T21:15:34.044Z,98585.58
2019-05-13T21:18:02.298Z,98580.86
2019-05-13T21:20:32.112Z,98585.08
2019-05-13T21:23:02.286Z,98579.66
2019-05-13T21:25:31.076Z,98589.61
2019-05-13T21:27:59.398Z,98581.79
2019-05-13T21:30:28.661Z,98575.84
2019-05-13T21:32:56.798Z,98579.42
2019-05-13T21:35:26.984Z,98570.54
2019-05-13T21:37:55.360Z,98575.50
2019-05-13T21:40:28.974Z,98579.54
2019-05-13T21:42:58.134Z,98576.48
2019-05-13T21:45:28.708Z,98572.91
2019-05-13T21:48:03.893Z,98575.44
2019-05-13T21:50:37.234Z,98572.11
2019-05-13T21:53:02.816Z,98566.57
2019-05-13T21:55:31.014Z,98566.11
2019-05-13T21:57:59.109Z,98555.22
2019-05-13T22:00:32.691Z,98550.52
2019-05-13T22:03:02.146Z,98554.77
2019-05-13T22:05:31.428Z,98551.03
2019-05-13T22:08:01.561Z,98542.28
2019-05-13T22:10:31.062Z,98546.52
2019-05-13T22:13:01.455Z,98543.23
2019-05-13T22:15:32.160Z,98545.09
2019-05-13T22:18:01.806Z,98540.71
2019-05-13T22:20:31.710Z,98538.75
2019-05-13T22:23:01.344Z,98536.50
2019-05-13T22:25:29.248Z,98529.70
2019-05-13T22:27:57.173Z,98527.69
2019-05-13T22:30:25.033Z,98535.70
2019-05-13T22:32:53.012Z,98529.99
2019-05-13T22:35:21.784Z,98532.77
2019-05-13T22:37:51.233Z,98535.81
2019-05-13T22:40:21.716Z,98539.50
2019-05-13T22:42:56.314Z,98542.95
2019-05-13T22:45:19.065Z,98536.72
2019-05-13T22:47:47.176Z,98541.16
2019-05-13T22:50:15.467Z,98544.03
2019-05-13T22:52:43.308Z,98543.51
2019-05-13T22:55:12.927Z,98539.13
2019-05-13T22:57:41.999Z,98541.83
2019-05-13T23:00:11.852Z,98521.30
2019-05-13T23:02:42.385Z,98534.23
2019-05-13T23:05:11.308Z,98534.09
2019-05-13T23:07:39.295Z,98528.19
2019-05-13T23:10:07.560Z,98525.31
2019-05-13T23:12:37.547Z,98531.53
2019-05-13T23:15:06.945Z,98525.67
2019-05-13T23:17:35.053Z,98527.09
2019-05-13T23:20:03.085Z,98523.54
2019-05-13T23:22:32.211Z,98532.83
2019-05-13T23:25:01.623Z,98526.38
2019-05-13T23:27:31.999Z,98531.31
2019-05-13T23:30:01.137Z,98525.79
2019-05-13T23:32:32.033Z,98515.78
2019-05-13T23:35:02.000Z,98518.42
2019-05-13T23:37:31.064Z,98513.13
2019-05-13T23:40:01.248Z,98510.02
2019-05-13T23:42:28.833Z,98503.04
2019-05-13T23:44:56.748Z,98499.06
2019-05-13T23:47:24.797Z,98492.60
2019-05-13T23:49:52.387Z,98498.03
2019-05-13T23:52:21.978Z,98493.13
2019-05-13T23:54:51.686Z,98491.80
2019-05-13T23:57:22.201Z,98486.31
2019-05-13T23:59:51.125Z,98482.66
